Time;durP1;ratioP1;P1;durP2;ratioP2;P2;SDS_P1;SDS_P2;PMS_P1;PMS_P2;Temp;Humidity;BMP_temperature;BMP_pressure;BME280_temperature;BME280_humidity;BME280_pressure;Samples;Min_cycle;Max_cycle;Signal;HPM_P1;HPM_P2
2023/08/17 00:00:49;;;;;;;14.30;7.37;;;;;;;;;;2615063;39;20945;-75
2023/08/17 00:06:19;;;;;;;8.70;7.50;;;;;;;;;;2614591;54;20366;-75
2023/08/17 00:11:48;;;;;;;10.57;8.03;;;;;;;;;;2614796;54;20390;-75
2023/08/17 00:17:18;;;;;;;9.60;7.43;;;;;;;;;;2614592;54;20411;-74
2023/08/17 00:22:48;;;;;;;11.40;7.30;;;;;;;;;;2614950;39;20717;-75
2023/08/17 00:28:17;;;;;;;15.13;7.30;;;;;;;;;;2614771;54;20583;-75
2023/08/17 00:33:47;;;;;;;9.73;6.80;;;;;;;;;;2615284;39;20749;-75
2023/08/17 00:39:17;;;;;;;10.57;6.77;;;;;;;;;;2615714;54;20538;-75
2023/08/17 00:44:47;;;;;;;11.63;7.00;;;;;;;;;;2615946;39;20811;-74
2023/08/17 00:50:16;;;;;;;10.57;6.47;;;;;;;;;;2615029;54;20390;-74
2023/08/17 00:55:46;;;;;;;6.87;6.17;;;;;;;;;;2615030;54;20540;-74
2023/08/17 01:01:16;;;;;;;12.00;6.60;;;;;;;;;;2614894;54;20435;-74
2023/08/17 01:06:45;;;;;;;20.00;9.03;;;;;;;;;;2614727;54;20354;-73
2023/08/17 01:12:15;;;;;;;8.90;6.97;;;;;;;;;;2614936;54;20391;-74
2023/08/17 01:17:54;;;;;;;14.80;6.70;;;;;;;;;;2614758;54;20889;-72
2023/08/17 01:23:24;;;;;;;13.13;7.63;;;;;;;;;;2614842;54;20443;-72
2023/08/17 01:28:54;;;;;;;10.27;6.83;;;;;;;;;;2615122;39;20709;-72
2023/08/17 01:34:26;;;;;;;8.93;7.10;;;;;;;;;;2614783;54;20439;-73
2023/08/17 01:39:57;;;;;;;13.60;8.20;;;;;;;;;;2615014;54;20402;-73
2023/08/17 01:45:27;;;;;;;11.47;7.87;;;;;;;;;;2614994;54;20952;-73
2023/08/17 01:50:57;;;;;;;8.10;7.30;;;;;;;;;;2615204;39;20823;-73
2023/08/17 01:56:26;;;;;;;8.80;7.73;;;;;;;;;;2615229;39;20871;-74
2023/08/17 02:01:56;;;;;;;16.20;8.20;;;;;;;;;;2615308;39;20833;-73
2023/08/17 02:07:26;;;;;;;9.80;7.43;;;;;;;;;;2614606;54;20403;-73
2023/08/17 02:12:56;;;;;;;12.20;8.70;;;;;;;;;;2614626;54;20386;-73
2023/08/17 02:24:33;;;;;;;12.60;8.37;;;;;;;;;;2614880;54;20363;-73
2023/08/17 02:30:03;;;;;;;9.00;7.90;;;;;;;;;;2615085;54;20534;-73
2023/08/17 02:35:34;;;;;;;11.33;8.53;;;;;;;;;;2614824;54;20390;-74
2023/08/17 02:41:03;;;;;;;10.07;8.23;;;;;;;;;;2614705;54;20362;-74
2023/08/17 02:46:33;;;;;;;11.90;9.07;;;;;;;;;;2615323;54;20491;-74
2023/08/17 02:52:03;;;;;;;10.47;8.40;;;;;;;;;;2614717;54;20398;-74
2023/08/17 02:57:32;;;;;;;9.50;8.50;;;;;;;;;;2614915;54;20350;-74
2023/08/17 03:03:02;;;;;;;9.63;8.57;;;;;;;;;;2614583;54;21044;-74
2023/08/17 03:08:32;;;;;;;12.23;11.03;;;;;;;;;;2614543;54;20354;-74
2023/08/17 03:14:02;;;;;;;13.27;8.30;;;;;;;;;;2614278;54;20359;-74
2023/08/17 03:23:08;;;;;;;17.90;9.27;;;;;;;;;;2614522;46;20522;-73
2023/08/17 03:28:37;;;;;;;10.13;8.80;;;;;;;;;;2614534;54;20386;-74
2023/08/17 03:34:07;;;;;;;10.80;8.67;;;;;;;;;;2614551;54;20358;-74
2023/08/17 03:39:37;;;;;;;18.40;8.67;;;;;;;;;;2615203;39;20458;-75
2023/08/17 03:45:06;;;;;;;12.90;9.50;;;;;;;;;;2614509;54;20511;-74
2023/08/17 03:50:36;;;;;;;14.13;8.30;;;;;;;;;;2614641;39;20815;-72
2023/08/17 03:56:06;;;;;;;12.00;9.07;;;;;;;;;;2614101;54;20355;-72
2023/08/17 04:01:35;;;;;;;13.03;8.87;;;;;;;;;;2614672;54;20359;-72
2023/08/17 04:04:20;;;;;;;10.47;9.47;;;;;;;;;;2614469;54;20414;-72
2023/08/17 04:06:46;;;;;;;11.47;7.87;;;;;;;;;;2614520;47;20416;-72
2023/08/17 04:12:15;;;;;;;14.30;9.17;;;;;;;;;;2614526;54;20387;-73
2023/08/17 04:17:45;;;;;;;12.63;8.47;;;;;;;;;;2615500;54;20363;-72
2023/08/17 04:26:58;;;;;;;15.60;9.10;;;;;;;;;;2614858;54;20896;-72
2023/08/17 04:32:28;;;;;;;14.13;8.80;;;;;;;;;;2614135;54;20363;-73
2023/08/17 04:37:58;;;;;;;11.20;9.40;;;;;;;;;;2615090;54;20865;-72
2023/08/17 04:43:27;;;;;;;12.87;9.93;;;;;;;;;;2615014;54;20375;-72
2023/08/17 04:48:57;;;;;;;12.13;10.37;;;;;;;;;;2615565;54;20487;-73
2023/08/17 04:54:26;;;;;;;19.73;12.03;;;;;;;;;;2615222;54;20395;-72
2023/08/17 04:59:56;;;;;;;19.57;14.37;;;;;;;;;;2614986;54;20410;-74
2023/08/17 05:05:25;;;;;;;21.83;13.27;;;;;;;;;;2615353;54;20398;-74
2023/08/17 05:10:55;;;;;;;22.93;14.53;;;;;;;;;;2615390;54;20367;-74
2023/08/17 05:16:25;;;;;;;17.20;13.57;;;;;;;;;;2615374;54;20439;-74
2023/08/17 05:21:54;;;;;;;18.03;14.60;;;;;;;;;;2615207;54;20367;-74
2023/08/17 05:27:24;;;;;;;16.27;13.17;;;;;;;;;;2615076;39;20845;-74
2023/08/17 05:32:54;;;;;;;22.90;12.53;;;;;;;;;;2614791;54;20386;-74
2023/08/17 05:38:23;;;;;;;17.57;13.40;;;;;;;;;;2615074;54;20363;-74
2023/08/17 05:43:53;;;;;;;11.20;9.40;;;;;;;;;;2615035;54;20391;-74
2023/08/17 05:49:23;;;;;;;14.40;9.67;;;;;;;;;;2615005;54;20382;-74
2023/08/17 05:54:52;;;;;;;11.83;8.10;;;;;;;;;;2615249;54;20458;-74
2023/08/17 06:00:23;;;;;;;12.27;9.03;;;;;;;;;;2614860;54;20387;-74
2023/08/17 06:05:53;;;;;;;17.57;8.87;;;;;;;;;;2615928;46;20383;-74
2023/08/17 06:11:23;;;;;;;18.00;10.40;;;;;;;;;;2619072;54;20434;-75
2023/08/17 06:16:53;;;;;;;17.43;9.77;;;;;;;;;;2618269;54;20386;-75
2023/08/17 06:22:23;;;;;;;12.37;10.57;;;;;;;;;;2618203;54;20949;-74
2023/08/17 06:31:31;;;;;;;20.87;10.80;;;;;;;;;;2614985;54;20430;-75
2023/08/17 06:37:02;;;;;;;13.07;11.67;;;;;;;;;;2615050;54;20567;-75
2023/08/17 06:42:32;;;;;;;17.77;11.77;;;;;;;;;;2614256;54;20383;-75
2023/08/17 06:48:01;;;;;;;16.17;11.70;;;;;;;;;;2615122;54;20492;-75
2023/08/17 06:53:31;;;;;;;19.00;13.27;;;;;;;;;;2614656;54;20359;-74
2023/08/17 06:59:01;;;;;;;19.63;15.13;;;;;;;;;;2614900;54;21035;-74
2023/08/17 07:04:32;;;;;;;19.33;12.83;;;;;;;;;;2615063;54;20402;-75
2023/08/17 07:10:02;;;;;;;16.00;14.30;;;;;;;;;;2615016;39;20900;-74
2023/08/17 07:15:32;;;;;;;17.60;14.60;;;;;;;;;;2615030;54;20374;-74
2023/08/17 07:21:01;;;;;;;16.87;13.50;;;;;;;;;;2615222;46;20475;-70
2023/08/17 07:26:30;;;;;;;19.77;15.20;;;;;;;;;;2614782;54;20355;-70
2023/08/17 07:32:01;;;;;;;17.67;13.80;;;;;;;;;;2614970;54;20350;-71
2023/08/17 07:37:33;;;;;;;19.47;13.53;;;;;;;;;;2615321;54;20447;-71
2023/08/17 07:43:02;;;;;;;15.73;13.63;;;;;;;;;;2614899;54;21257;-71
2023/08/17 07:48:33;;;;;;;18.80;14.03;;;;;;;;;;2616643;54;21100;-71
2023/08/17 07:54:03;;;;;;;20.13;14.40;;;;;;;;;;2615520;54;20373;-69
2023/08/17 07:59:32;;;;;;;18.83;13.60;;;;;;;;;;2616553;54;20375;-73
2023/08/17 08:05:02;;;;;;;18.53;13.30;;;;;;;;;;2616327;54;20394;-73
2023/08/17 08:10:32;;;;;;;17.60;13.93;;;;;;;;;;2616673;54;20922;-74
2023/08/17 08:16:01;;;;;;;16.83;13.33;;;;;;;;;;2616379;54;20430;-74
2023/08/17 08:21:31;;;;;;;18.50;12.67;;;;;;;;;;2616153;46;20398;-74
2023/08/17 08:27:01;;;;;;;20.10;14.10;;;;;;;;;;2615734;54;20414;-74
2023/08/17 08:32:31;;;;;;;17.17;13.57;;;;;;;;;;2616320;46;20470;-74
2023/08/17 08:38:01;;;;;;;18.40;14.77;;;;;;;;;;2616364;54;20507;-73
2023/08/17 08:43:31;;;;;;;17.70;13.13;;;;;;;;;;2616481;39;20713;-74
2023/08/17 08:49:01;;;;;;;14.80;13.30;;;;;;;;;;2615791;54;20382;-75
2023/08/17 08:54:31;;;;;;;19.27;14.30;;;;;;;;;;2615935;54;20395;-74
2023/08/17 09:00:00;;;;;;;16.13;14.43;;;;;;;;;;2615166;46;20387;-75
2023/08/17 09:05:32;;;;;;;19.67;16.10;;;;;;;;;;2615962;31;20823;-74
2023/08/17 09:11:02;;;;;;;17.70;14.90;;;;;;;;;;2615197;46;20398;-76
2023/08/17 09:16:31;;;;;;;19.57;16.40;;;;;;;;;;2615288;54;20367;-75
2023/08/17 09:22:01;;;;;;;19.80;15.90;;;;;;;;;;2614883;54;20936;-75
2023/08/17 09:33:38;;;;;;;26.20;15.57;;;;;;;;;;2615218;39;20769;-75
2023/08/17 09:39:08;;;;;;;21.80;17.20;;;;;;;;;;2614862;54;20391;-75
2023/08/17 09:44:38;;;;;;;20.67;16.80;;;;;;;;;;2615337;39;20853;-76
2023/08/17 09:50:08;;;;;;;23.20;17.40;;;;;;;;;;2614733;54;20359;-74
2023/08/17 09:55:39;;;;;;;20.47;15.30;;;;;;;;;;2614610;54;20429;-75
2023/08/17 09:58:24;;;;;;;17.77;15.20;;;;;;;;;;2614088;54;20450;-75
2023/08/17 10:00:51;;;;;;;21.43;17.63;;;;;;;;;;2614230;54;20424;-75
2023/08/17 10:06:23;;;;;;;17.90;15.60;;;;;;;;;;2614646;54;20382;-75
2023/08/17 10:11:52;;;;;;;16.90;14.47;;;;;;;;;;2615182;54;20355;-75
2023/08/17 10:17:31;;;;;;;18.70;15.50;;;;;;;;;;2614773;54;20378;-75
2023/08/17 10:23:17;;;;;;;16.70;14.67;;;;;;;;;;2615037;54;20512;-75
2023/08/17 10:32:13;;;;;;;17.07;15.43;;;;;;;;;;2615174;54;20367;-74
2023/08/17 10:37:42;;;;;;;16.23;14.53;;;;;;;;;;2614761;54;20479;-75
2023/08/17 10:43:12;;;;;;;16.63;14.90;;;;;;;;;;2614789;54;20395;-75
2023/08/17 10:48:43;;;;;;;15.27;13.30;;;;;;;;;;2614863;54;20374;-72
2023/08/17 10:54:14;;;;;;;15.33;13.83;;;;;;;;;;2614955;46;21074;-73
2023/08/17 10:59:44;;;;;;;16.47;14.50;;;;;;;;;;2614938;54;20391;-74
2023/08/17 11:05:14;;;;;;;17.70;15.90;;;;;;;;;;2614590;54;20387;-74
2023/08/17 11:10:48;;;;;;;19.73;17.70;;;;;;;;;;2614945;31;20779;-73
2023/08/17 11:16:20;;;;;;;21.57;19.40;;;;;;;;;;2614464;54;20358;-73
2023/08/17 11:21:50;;;;;;;26.40;22.47;;;;;;;;;;2614514;54;20383;-73
2023/08/17 11:27:20;;;;;;;26.13;23.33;;;;;;;;;;2614947;39;20776;-73
2023/08/17 11:32:54;;;;;;;27.97;24.37;;;;;;;;;;2614636;54;21015;-73
2023/08/17 11:38:23;;;;;;;27.13;24.47;;;;;;;;;;2614817;54;20371;-73
2023/08/17 11:43:55;;;;;;;28.33;25.60;;;;;;;;;;2614856;54;20387;-73
2023/08/17 11:49:25;;;;;;;27.80;25.00;;;;;;;;;;2614295;54;20359;-73
2023/08/17 11:54:57;;;;;;;22.67;20.47;;;;;;;;;;2614865;54;20878;-73
2023/08/17 12:00:27;;;;;;;22.63;20.23;;;;;;;;;;2614496;54;20918;-74
2023/08/17 12:05:57;;;;;;;19.63;16.93;;;;;;;;;;2614474;54;20367;-74
2023/08/17 12:11:27;;;;;;;22.13;18.50;;;;;;;;;;2614340;54;20463;-74
2023/08/17 12:16:57;;;;;;;22.23;18.90;;;;;;;;;;2614382;54;20414;-74
2023/08/17 12:22:27;;;;;;;21.13;18.70;;;;;;;;;;2614211;54;20362;-75
2023/08/17 12:28:01;;;;;;;25.20;17.77;;;;;;;;;;2614207;39;20746;-76
2023/08/17 12:37:02;;;;;;;26.73;18.37;;;;;;;;;;2615263;54;20390;-75
2023/08/17 12:42:31;;;;;;;21.63;18.30;;;;;;;;;;2615329;54;20383;-76
2023/08/17 12:48:02;;;;;;;24.60;18.13;;;;;;;;;;2615110;54;20367;-75
2023/08/17 12:53:32;;;;;;;19.97;17.77;;;;;;;;;;2615230;54;20383;-74
2023/08/17 12:59:01;;;;;;;24.73;18.33;;;;;;;;;;2615093;54;20418;-75
2023/08/17 13:04:31;;;;;;;19.23;17.20;;;;;;;;;;2614973;54;20418;-76
2023/08/17 13:10:01;;;;;;;21.93;17.80;;;;;;;;;;2614700;54;20375;-76
2023/08/17 13:15:30;;;;;;;28.00;20.13;;;;;;;;;;2615025;54;20945;-74
2023/08/17 13:21:00;;;;;;;20.67;18.50;;;;;;;;;;2614522;54;20471;-75
2023/08/17 13:26:30;;;;;;;21.37;18.70;;;;;;;;;;2615001;54;20418;-75
2023/08/17 13:32:00;;;;;;;19.67;17.77;;;;;;;;;;2614755;54;20370;-75
2023/08/17 13:37:30;;;;;;;21.33;19.23;;;;;;;;;;2614490;54;20446;-74
2023/08/17 13:43:00;;;;;;;18.73;16.13;;;;;;;;;;2615019;54;20423;-76
2023/08/17 13:48:29;;;;;;;21.47;19.57;;;;;;;;;;2615351;54;20427;-73
2023/08/17 13:53:59;;;;;;;24.40;22.10;;;;;;;;;;2615611;54;20376;-70
2023/08/17 13:59:29;;;;;;;20.73;18.57;;;;;;;;;;2615455;54;20512;-71
2023/08/17 14:04:59;;;;;;;18.07;16.33;;;;;;;;;;2615516;54;20492;-72
2023/08/17 14:10:28;;;;;;;19.13;17.43;;;;;;;;;;2615267;54;20511;-72
2023/08/17 14:15:59;;;;;;;20.90;18.80;;;;;;;;;;2615426;54;20358;-72
2023/08/17 14:21:29;;;;;;;21.87;19.70;;;;;;;;;;2614800;54;20359;-76
2023/08/17 14:26:59;;;;;;;28.33;23.30;;;;;;;;;;2614924;54;20548;-75
2023/08/17 14:32:29;;;;;;;20.43;18.53;;;;;;;;;;2615525;39;20810;-75
2023/08/17 14:41:33;;;;;;;21.27;18.27;;;;;;;;;;2614669;54;20387;-74
2023/08/17 14:47:03;;;;;;;22.10;19.90;;;;;;;;;;2614650;54;20407;-75
2023/08/17 14:52:32;;;;;;;48.77;26.70;;;;;;;;;;2614894;54;20395;-75
2023/08/17 14:58:03;;;;;;;36.83;27.80;;;;;;;;;;2614926;54;20403;-75
2023/08/17 15:03:32;;;;;;;20.07;17.97;;;;;;;;;;2614684;54;20379;-74
2023/08/17 15:09:05;;;;;;;21.60;19.27;;;;;;;;;;2614603;54;20411;-74
2023/08/17 15:14:35;;;;;;;25.27;20.50;;;;;;;;;;2614997;54;20422;-75
2023/08/17 15:20:05;;;;;;;22.57;20.30;;;;;;;;;;2614321;54;20358;-75
2023/08/17 15:25:35;;;;;;;23.53;21.20;;;;;;;;;;2614402;54;20940;-73
2023/08/17 15:31:05;;;;;;;22.63;19.70;;;;;;;;;;2614520;54;20355;-76
2023/08/17 15:36:35;;;;;;;19.70;17.63;;;;;;;;;;2614498;54;20375;-75
2023/08/17 15:42:04;;;;;;;21.00;18.80;;;;;;;;;;2614612;54;20454;-76
2023/08/17 15:47:34;;;;;;;17.40;15.70;;;;;;;;;;2614552;54;20351;-78
2023/08/17 15:53:08;;;;;;;16.83;15.10;;;;;;;;;;2614395;54;20375;-76
2023/08/17 15:55:53;;;;;;;16.60;14.93;;;;;;;;;;2613569;54;20399;-76
2023/08/17 15:58:19;;;;;;;17.17;15.37;;;;;;;;;;2614651;54;20424;-76
2023/08/17 16:03:49;;;;;;;15.87;14.40;;;;;;;;;;2614691;54;20351;-76
2023/08/17 16:09:18;;;;;;;16.50;14.80;;;;;;;;;;2615443;54;20423;-76
2023/08/17 16:14:48;;;;;;;15.70;13.53;;;;;;;;;;2615679;54;20929;-76
2023/08/17 16:20:17;;;;;;;14.73;12.43;;;;;;;;;;2615238;54;21349;-76
2023/08/17 16:25:47;;;;;;;13.70;12.20;;;;;;;;;;2615261;54;20415;-75
2023/08/17 16:31:17;;;;;;;11.93;10.80;;;;;;;;;;2615110;54;20386;-76
2023/08/17 16:36:46;;;;;;;11.50;10.53;;;;;;;;;;2615877;39;20780;-76
2023/08/17 16:45:53;;;;;;;12.57;11.00;;;;;;;;;;2615968;39;20773;-72
2023/08/17 16:51:23;;;;;;;13.63;12.30;;;;;;;;;;2616133;39;20882;-72
2023/08/17 16:56:52;;;;;;;14.37;12.00;;;;;;;;;;2615650;54;20391;-72
2023/08/17 17:02:23;;;;;;;11.93;10.80;;;;;;;;;;2615510;54;20350;-74
2023/08/17 17:07:53;;;;;;;22.67;10.60;;;;;;;;;;2615607;54;20406;-71
2023/08/17 17:13:22;;;;;;;14.13;10.53;;;;;;;;;;2615477;54;20374;-71
2023/08/17 17:18:52;;;;;;;11.07;10.03;;;;;;;;;;2615090;54;20355;-73
2023/08/17 17:24:22;;;;;;;11.13;10.13;;;;;;;;;;2615867;54;20339;-74
2023/08/17 17:29:51;;;;;;;11.80;10.70;;;;;;;;;;2616096;39;20753;-73
2023/08/17 17:35:21;;;;;;;12.93;11.07;;;;;;;;;;2615398;54;20371;-72
2023/08/17 17:40:50;;;;;;;12.20;11.10;;;;;;;;;;2615261;54;20422;-71
2023/08/17 17:46:20;;;;;;;12.60;11.37;;;;;;;;;;2615311;54;20362;-73
2023/08/17 17:51:50;;;;;;;14.60;11.80;;;;;;;;;;2615266;46;20371;-75
2023/08/17 17:57:20;;;;;;;13.47;12.17;;;;;;;;;;2615237;54;20399;-73
2023/08/17 18:02:49;;;;;;;19.60;12.43;;;;;;;;;;2615150;54;20415;-73
2023/08/17 18:08:19;;;;;;;15.17;13.77;;;;;;;;;;2615167;54;20371;-74
2023/08/17 18:13:50;;;;;;;16.30;12.43;;;;;;;;;;2615474;39;20778;-74
2023/08/17 18:19:19;;;;;;;15.33;13.83;;;;;;;;;;2614837;54;20395;-73
2023/08/17 18:24:52;;;;;;;14.97;13.43;;;;;;;;;;2615174;54;20872;-75
2023/08/17 18:30:22;;;;;;;15.00;13.50;;;;;;;;;;2615067;54;20367;-74
2023/08/17 18:35:51;;;;;;;16.03;14.23;;;;;;;;;;2615418;54;21000;-74
2023/08/17 18:41:21;;;;;;;19.87;17.97;;;;;;;;;;2614873;39;20834;-73
2023/08/17 18:46:50;;;;;;;18.63;16.73;;;;;;;;;;2614946;54;20398;-73
2023/08/17 18:52:20;;;;;;;20.40;18.17;;;;;;;;;;2614530;54;20419;-73
2023/08/17 18:57:50;;;;;;;20.10;18.10;;;;;;;;;;2615319;39;20902;-75
2023/08/17 19:03:19;;;;;;;20.23;17.73;;;;;;;;;;2615791;47;20367;-75
2023/08/17 19:08:49;;;;;;;19.67;17.40;;;;;;;;;;2614735;54;20411;-75
2023/08/17 19:14:19;;;;;;;22.87;18.50;;;;;;;;;;2614830;54;20511;-76
2023/08/17 19:19:48;;;;;;;20.53;17.97;;;;;;;;;;2614669;54;20387;-74
2023/08/17 19:25:18;;;;;;;25.77;23.17;;;;;;;;;;2614705;54;20383;-75
2023/08/17 19:30:47;;;;;;;27.23;23.60;;;;;;;;;;2614442;54;20362;-74
2023/08/17 19:36:17;;;;;;;24.10;21.47;;;;;;;;;;2614794;54;20399;-75
2023/08/17 19:47:54;;;;;;;25.63;22.87;;;;;;;;;;2614554;54;20964;-74
2023/08/17 19:53:24;;;;;;;27.80;21.33;;;;;;;;;;2614320;54;20386;-75
2023/08/17 19:58:54;;;;;;;25.47;21.07;;;;;;;;;;2613840;54;20379;-75
2023/08/17 20:04:23;;;;;;;22.97;20.63;;;;;;;;;;2613620;54;20406;-75
2023/08/17 20:09:53;;;;;;;24.77;22.20;;;;;;;;;;2613994;54;20443;-73
2023/08/17 20:15:23;;;;;;;24.43;21.80;;;;;;;;;;2614421;54;20382;-74
2023/08/17 20:20:56;;;;;;;34.93;23.63;;;;;;;;;;2614023;54;20390;-73
2023/08/17 20:26:26;;;;;;;25.73;22.90;;;;;;;;;;2614214;54;20388;-73
2023/08/17 20:31:55;;;;;;;28.87;24.90;;;;;;;;;;2614529;47;20414;-74
2023/08/17 20:37:25;;;;;;;28.37;22.50;;;;;;;;;;2614466;54;20342;-73
2023/08/17 20:49:04;;;;;;;28.93;21.27;;;;;;;;;;2614329;54;20355;-74
2023/08/17 20:54:33;;;;;;;22.80;19.70;;;;;;;;;;2615096;54;20438;-73
2023/08/17 21:00:04;;;;;;;22.40;20.00;;;;;;;;;;2615101;54;20367;-74
2023/08/17 21:05:34;;;;;;;22.13;19.67;;;;;;;;;;2615186;54;20382;-74
2023/08/17 21:11:04;;;;;;;22.33;19.27;;;;;;;;;;2615496;39;20745;-73
2023/08/17 21:16:34;;;;;;;29.00;18.83;;;;;;;;;;2614833;54;20480;-74
2023/08/17 21:22:04;;;;;;;21.50;18.87;;;;;;;;;;2615031;54;20414;-75
2023/08/17 21:27:33;;;;;;;18.73;16.73;;;;;;;;;;2614536;54;20375;-75
2023/08/17 21:33:03;;;;;;;19.93;17.50;;;;;;;;;;2614626;54;20964;-76
2023/08/17 21:38:33;;;;;;;21.67;19.00;;;;;;;;;;2614982;54;20355;-76
2023/08/17 21:47:43;;;;;;;23.90;17.97;;;;;;;;;;2614865;54;20414;-76
2023/08/17 21:53:14;;;;;;;23.90;18.00;;;;;;;;;;2614957;54;20399;-74
2023/08/17 21:55:59;;;;;;;25.27;19.70;;;;;;;;;;2614838;54;20388;-75
2023/08/17 21:58:25;;;;;;;25.50;19.60;;;;;;;;;;2614561;54;20454;-75
2023/08/17 22:03:54;;;;;;;22.13;18.27;;;;;;;;;;2615132;54;20375;-75
2023/08/17 22:09:24;;;;;;;21.73;18.43;;;;;;;;;;2614806;54;20362;-76
2023/08/17 22:14:54;;;;;;;22.53;18.03;;;;;;;;;;2614833;54;20350;-76
2023/08/17 22:20:23;;;;;;;21.17;18.10;;;;;;;;;;2614787;54;20889;-76
2023/08/17 22:25:53;;;;;;;19.27;17.00;;;;;;;;;;2614896;54;20380;-74
2023/08/17 22:31:22;;;;;;;22.20;17.37;;;;;;;;;;2614965;54;20374;-72
2023/08/17 22:36:52;;;;;;;18.40;16.47;;;;;;;;;;2615516;54;20355;-71
2023/08/17 22:42:23;;;;;;;17.63;15.47;;;;;;;;;;2615446;54;20355;-73
2023/08/17 22:51:24;;;;;;;18.10;15.90;;;;;;;;;;2614872;54;20402;-71
2023/08/17 22:56:54;;;;;;;21.97;15.30;;;;;;;;;;2614916;54;20395;-71
2023/08/17 23:02:24;;;;;;;19.43;15.47;;;;;;;;;;2615294;54;20383;-71
2023/08/17 23:07:53;;;;;;;22.77;15.80;;;;;;;;;;2614973;54;20387;-71
2023/08/17 23:13:23;;;;;;;23.63;18.50;;;;;;;;;;2614994;54;20431;-70
2023/08/17 23:18:53;;;;;;;23.63;17.90;;;;;;;;;;2615207;54;20395;-72
2023/08/17 23:24:22;;;;;;;23.87;18.97;;;;;;;;;;2615013;54;20342;-73
2023/08/17 23:29:52;;;;;;;24.27;18.60;;;;;;;;;;2614665;54;20382;-72
2023/08/17 23:35:22;;;;;;;30.83;19.93;;;;;;;;;;2614932;39;20467;-72
2023/08/17 23:40:52;;;;;;;24.60;20.37;;;;;;;;;;2615190;39;20722;-74
2023/08/17 23:46:21;;;;;;;23.83;18.67;;;;;;;;;;2614923;46;20403;-73
2023/08/17 23:51:51;;;;;;;23.90;17.23;;;;;;;;;;2615130;54;20390;-75
2023/08/17 23:57:20;;;;;;;28.83;21.30;;;;;;;;;;2614686;54;20398;-75
